Time;durP1;ratioP1;P1;durP2;ratioP2;P2;SDS_P1;SDS_P2;PMS_P1;PMS_P2;Temp;Humidity;BMP_temperature;BMP_pressure;BME280_temperature;BME280_humidity;BME280_pressure;Samples;Min_cycle;Max_cycle;Signal;HPM_P1;HPM_P2
2020/12/29 00:01:43;;;;;;;;;0.00;0.00;20.20;78.80;;;18.57;60.10;101152.69;5102433;28;8955;-51
2020/12/29 00:04:25;;;;;;;;;0.75;0.75;20.30;78.00;;;18.59;61.34;101152.53;5087140;28;8772;-50
2020/12/29 00:06:54;;;;;;;;;1.00;1.00;20.20;77.40;;;18.57;60.67;101160.72;5100108;28;9499;-50
2020/12/29 00:09:24;;;;;;;;;1.00;1.00;20.30;77.70;;;18.58;61.03;101159.72;5092718;28;8768;-49
2020/12/29 00:11:52;;;;;;;;;0.75;0.75;20.30;77.40;;;18.57;60.69;101155.34;5082791;28;8819;-50
2020/12/29 00:14:20;;;;;;;;;1.00;1.00;20.10;77.30;;;18.57;61.00;101158.03;5085347;28;8799;-49
2020/12/29 00:16:47;;;;;;;;;1.00;0.00;20.30;77.60;;;18.55;60.24;101168.03;5078159;28;8810;-50
2020/12/29 00:19:26;;;;;;;;;0.00;0.00;20.10;77.50;;;18.55;60.63;101165.34;5094507;28;8750;-48
2020/12/29 00:21:54;;;;;;;;;0.60;0.60;20.20;77.30;;;18.54;60.40;101168.16;5085903;28;8796;-50
2020/12/29 00:24:21;;;;;;;;;0.00;0.00;20.20;77.30;;;18.52;60.07;101167.47;5096145;28;8821;-52
2020/12/29 00:26:48;;;;;;;;;0.00;0.00;20.10;77.30;;;18.51;59.11;101171.13;5086862;28;8817;-49
2020/12/29 00:29:15;;;;;;;;;1.00;1.00;20.40;77.30;;;18.56;60.29;101187.59;5099092;28;8804;-50
2020/12/29 00:31:42;;;;;;;;;0.00;0.00;20.40;78.80;;;18.61;59.17;101182.66;5094744;28;8778;-51
2020/12/29 00:34:08;;;;;;;;;0.00;0.00;20.30;78.40;;;18.62;60.60;101182.53;5097010;28;8809;-50
2020/12/29 00:36:35;;;;;;;;;0.20;0.20;20.20;78.10;;;18.62;60.36;101178.97;5095043;28;8815;-51
2020/12/29 00:39:03;;;;;;;;;1.00;1.00;20.30;77.30;;;18.62;60.35;101189.69;5100349;28;8874;-52
2020/12/29 00:41:30;;;;;;;;;1.00;1.00;20.20;77.00;;;18.62;60.13;101189.69;5089077;28;8804;-51
2020/12/29 00:43:57;;;;;;;;;0.60;0.60;20.30;77.00;;;18.60;60.11;101195.19;5090448;28;9011;-50
2020/12/29 00:46:24;;;;;;;;;1.00;1.00;20.30;77.10;;;18.60;59.33;101191.69;5091784;28;8928;-49
2020/12/29 00:48:51;;;;;;;;;0.00;0.00;20.30;77.20;;;18.59;60.17;101204.19;5094837;28;8955;-52
2020/12/29 00:51:21;;;;;;;;;0.75;0.75;20.40;77.10;;;18.59;60.53;101208.72;5083040;28;8792;-51
2020/12/29 00:53:48;;;;;;;;;0.00;0.00;20.30;77.00;;;18.58;60.22;101210.53;5085817;28;9634;-49
2020/12/29 00:56:15;;;;;;;;;1.00;1.00;20.30;77.00;;;18.58;60.19;101217.75;5087181;28;8865;-51
2020/12/29 00:58:42;;;;;;;;;0.75;0.75;20.30;77.10;;;18.58;60.48;101218.56;5093888;28;8795;-48
2020/12/29 01:01:10;;;;;;;;;1.00;1.00;20.20;77.00;;;18.55;57.48;101218.03;5090903;28;8815;-48
2020/12/29 01:03:39;;;;;;;;;2.00;1.00;20.40;77.00;;;18.57;59.24;101214.22;5086407;28;8906;-49
2020/12/29 01:06:07;;;;;;;;;0.00;0.00;20.20;77.70;;;18.62;57.81;101219.13;5088761;28;8917;-50
2020/12/29 01:08:34;;;;;;;;;1.00;1.00;20.20;77.50;;;18.66;59.43;101225.88;5088162;28;8916;-53
2020/12/29 01:11:01;;;;;;;;;0.00;0.00;20.30;77.10;;;18.70;58.00;101224.63;5085298;28;8799;-48
2020/12/29 01:13:28;;;;;;;;;1.00;1.00;20.40;77.00;;;18.71;58.22;101230.81;5092456;28;8786;-49
2020/12/29 01:15:55;;;;;;;;;1.00;1.00;20.40;77.00;;;18.73;58.62;101239.56;5097862;28;9537;-49
2020/12/29 01:18:22;;;;;;;;;1.00;1.00;20.40;77.30;;;18.73;59.06;101231.53;5088791;28;8803;-54
2020/12/29 01:20:50;;;;;;;;;2.00;2.00;20.40;77.50;;;18.75;58.76;101243.81;5096872;28;8788;-48
2020/12/29 01:23:17;;;;;;;;;2.75;1.50;20.60;77.20;;;18.78;58.21;101253.38;5100973;28;8770;-57
2020/12/29 01:25:45;;;;;;;;;0.00;0.00;20.50;76.80;;;18.80;58.44;101254.94;5086581;28;8786;-51
2020/12/29 01:28:12;;;;;;;;;1.25;1.00;20.60;76.80;;;18.81;58.86;101263.78;5080885;28;8764;-52
2020/12/29 01:30:39;;;;;;;;;2.00;2.00;20.60;76.60;;;18.82;58.83;101262.78;5091250;28;8838;-50
2020/12/29 01:33:07;;;;;;;;;2.75;2.00;20.50;76.20;;;18.82;58.12;101260.13;5083915;28;8792;-52
2020/12/29 01:35:34;;;;;;;;;1.00;1.00;20.50;76.40;;;18.82;59.06;101260.13;5086130;28;8832;-54
2020/12/29 01:38:03;;;;;;;;;2.75;2.50;20.40;76.30;;;18.82;56.37;101266.31;5101975;28;8778;-55
2020/12/29 01:40:31;;;;;;;;;1.80;1.00;20.50;75.90;;;18.86;58.31;101269.56;5087779;28;8793;-52
2020/12/29 01:42:58;;;;;;;;;1.25;1.25;20.50;77.40;;;18.90;57.62;101270.94;5087649;28;8764;-56
2020/12/29 01:45:26;;;;;;;;;2.00;2.00;20.50;76.90;;;18.94;58.83;101274.19;5094130;28;8812;-55
2020/12/29 01:47:54;;;;;;;;;1.50;1.50;20.70;77.70;;;18.96;58.97;101274.91;5101661;28;8868;-54
2020/12/29 01:50:25;;;;;;;;;2.00;2.00;20.60;76.10;;;18.98;58.28;101287.16;5091066;28;8780;-51
2020/12/29 01:53:00;;;;;;;;;1.00;1.00;20.70;76.40;;;19.00;58.63;101284.31;5079006;28;8796;-50
2020/12/29 01:55:29;;;;;;;;;1.00;1.00;20.60;76.00;;;19.01;59.41;101281.50;5093308;28;9499;-49
2020/12/29 01:57:59;;;;;;;;;0.20;0.20;20.60;75.80;;;19.00;56.17;101281.66;5091392;28;8805;-51
2020/12/29 02:00:27;;;;;;;;;2.25;2.00;20.70;75.80;;;19.00;57.02;101287.84;5084537;28;8796;-52
2020/12/29 02:02:56;;;;;;;;;0.80;0.40;20.40;75.60;;;18.99;55.98;101282.66;5089064;28;8800;-56
2020/12/29 02:05:28;;;;;;;;;1.20;1.20;20.70;75.30;;;19.02;56.79;101285.88;5070231;28;8812;-54
2020/12/29 02:07:55;;;;;;;;;1.00;1.00;20.70;76.50;;;19.07;56.64;101280.91;5078305;28;8803;-56
2020/12/29 02:10:22;;;;;;;;;2.40;1.60;20.80;76.40;;;19.14;56.39;101285.72;5096501;28;8796;-55
2020/12/29 02:12:48;;;;;;;;;1.60;1.60;20.80;75.50;;;19.23;56.90;101285.69;5085484;28;8816;-57
2020/12/29 02:15:15;;;;;;;;;1.40;1.40;20.70;76.20;;;19.36;55.90;101296.09;5104177;28;8776;-53
2020/12/29 02:17:42;;;;;;;;;2.00;2.00;21.00;75.60;;;19.39;57.64;101298.47;5084123;28;8799;-51
2020/12/29 02:20:09;;;;;;;;;1.60;1.60;21.10;75.40;;;19.39;57.26;101303.00;5080043;28;8784;-53
2020/12/29 02:22:36;;;;;;;;;1.00;1.00;21.10;75.40;;;19.39;57.48;101309.19;5086184;28;8779;-51
2020/12/29 02:25:07;;;;;;;;;1.40;1.40;21.20;75.40;;;19.37;56.45;101307.66;5082163;28;8811;-49
2020/12/29 02:27:48;;;;;;;;;1.00;1.00;20.90;75.90;;;19.39;56.34;101311.88;5087139;28;8831;-54
2020/12/29 02:30:16;;;;;;;;;0.80;0.80;21.10;75.50;;;19.43;56.70;101315.91;5086221;28;8776;-58
2020/12/29 02:32:43;;;;;;;;;1.00;1.00;20.90;75.70;;;19.43;58.11;101323.13;5104477;28;8789;-58
2020/12/29 02:35:15;;;;;;;;;1.80;1.80;20.90;75.30;;;19.45;58.34;101326.50;5098339;28;8802;-58
2020/12/29 02:37:42;;;;;;;;;1.60;1.60;21.10;74.40;;;19.44;55.54;101336.38;5092183;28;9583;-57
2020/12/29 02:40:09;;;;;;;;;1.00;1.00;21.10;74.40;;;19.47;55.86;101337.94;5092421;28;8893;-57
2020/12/29 02:42:36;;;;;;;;;1.00;1.00;21.10;75.60;;;19.50;56.72;101332.28;5086115;28;8809;-55
2020/12/29 02:45:08;;;;;;;;;1.00;1.00;21.00;75.10;;;19.52;57.64;101332.97;5090698;28;8812;-55
2020/12/29 02:47:35;;;;;;;;;1.00;1.00;21.30;74.60;;;19.53;58.61;101332.81;5094076;28;8775;-55
2020/12/29 02:50:01;;;;;;;;;1.00;1.00;21.10;74.20;;;19.50;54.33;101335.78;5096910;28;8886;-54
2020/12/29 02:52:28;;;;;;;;;1.00;1.00;21.30;74.00;;;19.50;55.59;101340.31;5096583;28;8764;-56
2020/12/29 02:54:55;;;;;;;;;0.40;0.40;21.10;75.40;;;19.54;55.77;101341.72;5096291;28;8834;-57
2020/12/29 02:57:22;;;;;;;;;0.60;0.60;21.30;75.10;;;19.58;57.12;101342.25;5090993;28;8855;-57
2020/12/29 02:59:49;;;;;;;;;1.80;1.00;21.20;75.20;;;19.59;56.49;101350.16;5093671;28;8809;-57
2020/12/29 03:02:15;;;;;;;;;2.00;2.00;21.40;75.00;;;19.57;56.65;101354.81;5102889;28;8868;-55
2020/12/29 03:04:42;;;;;;;;;1.00;0.20;21.20;74.00;;;19.57;57.57;101364.72;5096653;28;9503;-57
2020/12/29 03:07:11;;;;;;;;;1.00;1.00;21.20;73.90;;;19.55;55.38;101351.44;5090579;28;9023;-57
2020/12/29 03:09:38;;;;;;;;;1.00;1.00;21.30;75.10;;;19.58;55.46;101366.38;5092450;28;8770;-57
2020/12/29 03:12:05;;;;;;;;;1.40;1.40;21.30;75.50;;;19.61;55.53;101364.25;5107312;28;9546;-58
2020/12/29 03:14:32;;;;;;;;;1.40;1.40;21.30;74.90;;;19.61;54.45;101368.75;5084473;28;8824;-53
2020/12/29 03:16:59;;;;;;;;;1.20;1.20;21.20;74.20;;;19.59;55.93;101366.25;5077247;28;9614;-50
2020/12/29 03:19:26;;;;;;;;;1.00;0.80;21.20;73.80;;;19.58;54.07;101377.09;5089930;28;8873;-55
2020/12/29 03:21:53;;;;;;;;;1.20;1.20;21.20;74.20;;;19.50;55.32;101376.00;5090102;28;8795;-50
2020/12/29 03:24:19;;;;;;;;;0.00;0.00;21.10;74.20;;;19.47;55.55;101378.97;5096786;28;9621;-50
2020/12/29 03:26:48;;;;;;;;;3.00;1.00;21.20;74.20;;;19.44;55.17;101381.09;5099404;28;8805;-51
2020/12/29 03:29:15;;;;;;;;;0.00;0.00;20.90;75.50;;;19.44;55.15;101384.63;5100555;28;8800;-54
2020/12/29 03:31:45;;;;;;;;;1.00;1.00;21.10;75.40;;;19.46;56.00;101381.78;5076401;28;8788;-50
2020/12/29 03:34:36;;;;;;;;;1.00;1.00;21.00;74.50;;;19.43;56.00;101382.06;5107611;28;8799;-49
2020/12/29 03:37:09;;;;;;;;;0.00;0.00;21.10;74.10;;;19.40;55.97;101396.59;5090838;28;8819;-51
2020/12/29 03:39:38;;;;;;;;;1.00;1.00;21.00;74.80;;;19.38;56.85;101400.41;5096224;28;8800;-52
2020/12/29 03:42:05;;;;;;;;;0.20;0.20;21.00;73.80;;;19.35;56.97;101398.88;5069981;28;8895;-51
2020/12/29 03:44:33;;;;;;;;;0.00;0.00;20.90;73.80;;;19.34;56.20;101407.91;5092533;28;8787;-51
2020/12/29 03:47:02;;;;;;;;;2.00;1.80;20.90;74.00;;;19.29;56.25;101400.28;5088583;28;8894;-53
2020/12/29 03:49:29;;;;;;;;;1.00;1.00;21.10;74.10;;;19.29;56.37;101402.13;5090658;28;8812;-51
2020/12/29 03:51:56;;;;;;;;;1.00;1.00;20.70;74.30;;;19.27;55.02;101412.97;5088931;28;8792;-50
2020/12/29 03:54:23;;;;;;;;;1.50;1.50;20.80;74.70;;;19.24;56.08;101409.75;5086236;28;9518;-50
2020/12/29 03:56:50;;;;;;;;;0.80;0.00;20.70;75.00;;;19.24;56.59;101426.66;5081391;28;8957;-51
2020/12/29 03:59:16;;;;;;;;;1.00;1.00;20.70;75.30;;;19.22;56.40;101420.59;5093416;28;8796;-51
2020/12/29 04:01:43;;;;;;;;;1.60;1.60;20.70;75.70;;;19.19;55.95;101425.41;5079758;28;8812;-52
2020/12/29 04:04:10;;;;;;;;;2.00;2.00;20.60;75.90;;;19.18;57.24;101427.22;5088295;28;8787;-50
2020/12/29 04:06:37;;;;;;;;;3.25;3.00;20.70;76.20;;;19.16;57.46;101428.34;5092432;28;8919;-51
2020/12/29 04:09:04;;;;;;;;;1.25;1.00;20.90;77.30;;;19.14;57.92;101433.84;5092446;28;8784;-51
2020/12/29 04:11:31;;;;;;;;;2.00;2.00;20.60;76.70;;;19.12;57.98;101440.34;5094010;28;8786;-50
2020/12/29 04:13:58;;;;;;;;;2.00;2.00;20.60;77.00;;;19.11;57.96;101450.22;5090302;28;8891;-52
2020/12/29 04:16:24;;;;;;;;;2.00;2.00;20.70;77.20;;;19.07;57.90;101446.09;5090714;28;8830;-51
2020/12/29 04:18:52;;;;;;;;;2.25;2.00;20.60;77.30;;;19.05;58.37;101451.59;5093899;28;8834;-52
2020/12/29 04:21:19;;;;;;;;;2.50;2.50;20.60;77.30;;;19.04;57.70;101451.75;5092487;28;8776;-50
2020/12/29 04:23:46;;;;;;;;;2.00;2.00;20.40;77.20;;;19.04;58.60;101449.91;5093773;28;8796;-49
2020/12/29 04:26:16;;;;;;;;;2.50;2.00;20.70;77.50;;;19.00;58.11;101453.84;5093196;28;8791;-50
2020/12/29 04:28:43;;;;;;;;;3.00;3.00;20.50;77.40;;;18.97;56.43;101451.44;5093399;28;8779;-53
2020/12/29 04:31:15;;;;;;;;;2.25;1.75;20.60;76.50;;;18.93;58.49;101452.75;5091178;28;8801;-49
2020/12/29 04:33:42;;;;;;;;;1.25;1.25;20.40;77.80;;;18.95;58.99;101457.94;5088171;28;8800;-53
2020/12/29 04:36:09;;;;;;;;;0.80;0.20;20.50;78.30;;;18.99;59.28;101467.38;5090865;28;8928;-50
2020/12/29 04:38:37;;;;;;;;;0.60;0.60;20.60;77.60;;;18.96;58.94;101473.03;5087293;28;8772;-53
2020/12/29 04:41:04;;;;;;;;;1.50;1.00;20.80;76.80;;;18.93;57.39;101466.13;5095533;28;8787;-48
2020/12/29 04:43:33;;;;;;;;;3.00;1.50;20.60;76.50;;;18.92;58.53;101469.78;5089575;28;8799;-50
2020/12/29 04:46:04;;;;;;;;;3.00;1.25;20.50;76.90;;;18.91;58.17;101477.97;5088418;28;8791;-50
2020/12/29 04:48:31;;;;;;;;;1.25;1.25;20.40;77.20;;;18.90;57.94;101485.13;5091749;28;8880;-51
2020/12/29 04:51:15;;;;;;;;;1.00;1.00;20.40;76.50;;;18.85;58.41;101485.56;5090362;28;8782;-50
2020/12/29 04:53:57;;;;;;;;;3.00;3.00;20.50;76.70;;;18.85;58.98;101490.03;5074019;28;8756;-48
2020/12/29 04:56:32;;;;;;;;;2.00;2.00;20.50;76.70;;;18.84;59.00;101502.59;5091228;28;8835;-51
2020/12/29 04:59:03;;;;;;;;;1.50;1.50;20.40;76.90;;;18.82;59.85;101487.66;5084718;28;8771;-48
2020/12/29 05:01:34;;;;;;;;;1.00;1.00;20.40;76.90;;;18.79;56.68;101490.59;5085138;28;8760;-50
2020/12/29 05:04:01;;;;;;;;;2.00;1.00;20.30;76.60;;;18.77;57.68;101489.88;5089826;28;8800;-50
2020/12/29 05:06:28;;;;;;;;;2.00;1.00;20.30;77.30;;;18.80;58.69;101500.31;5084975;28;9633;-52
2020/12/29 05:08:56;;;;;;;;;0.00;0.00;20.40;77.90;;;18.82;58.76;101501.03;5080534;28;8782;-48
2020/12/29 05:11:25;;;;;;;;;1.25;1.25;20.50;77.20;;;18.80;58.88;101503.00;5089247;28;8803;-48
2020/12/29 05:13:52;;;;;;;;;1.40;1.00;20.50;76.80;;;18.80;58.99;101509.22;5100825;28;8812;-49
2020/12/29 05:16:19;;;;;;;;;2.20;1.20;20.40;76.40;;;18.75;59.74;101511.47;5092141;28;8932;-49
2020/12/29 05:18:46;;;;;;;;;1.00;1.00;20.20;76.20;;;18.72;59.26;101511.66;5090453;28;8774;-49
2020/12/29 05:21:13;;;;;;;;;2.00;1.00;20.40;76.40;;;18.72;58.30;101509.00;5080740;28;8880;-50
2020/12/29 05:23:39;;;;;;;;;1.80;1.00;20.30;76.90;;;18.67;58.19;101513.91;5086438;28;8815;-49
2020/12/29 05:26:06;;;;;;;;;2.75;2.00;20.40;76.90;;;18.65;58.03;101522.09;5085125;28;8782;-49
2020/12/29 05:28:34;;;;;;;;;0.50;0.50;20.30;77.00;;;18.69;58.72;101513.78;5084566;28;9540;-50
2020/12/29 05:31:05;;;;;;;;;1.50;1.00;20.50;77.30;;;18.70;58.68;101513.66;5091378;28;8803;-50
2020/12/29 05:33:32;;;;;;;;;0.00;0.00;20.40;76.40;;;18.65;58.89;101511.38;5075201;28;8787;-49
2020/12/29 05:36:01;;;;;;;;;1.00;0.00;20.50;76.20;;;18.65;58.78;101523.94;5093197;28;8938;-50
2020/12/29 05:38:28;;;;;;;;;1.20;1.00;20.40;76.70;;;18.64;57.45;101530.25;5079333;28;8838;-49
2020/12/29 05:40:55;;;;;;;;;1.00;1.00;20.30;76.70;;;18.66;57.61;101520.25;5090779;28;8811;-48
2020/12/29 05:43:33;;;;;;;;;1.60;1.00;20.40;76.70;;;18.68;59.02;101514.78;5081506;28;8795;-48
2020/12/29 05:46:08;;;;;;;;;0.00;0.00;20.50;76.30;;;18.66;59.34;101529.13;5088535;28;8776;-48
2020/12/29 05:48:34;;;;;;;;;1.00;1.00;20.30;75.90;;;18.68;58.19;101525.50;5071521;28;8845;-52
2020/12/29 05:51:12;;;;;;;;;2.00;1.00;20.30;76.00;;;18.70;58.19;101529.72;5089548;28;8836;-51
2020/12/29 05:53:39;;;;;;;;;1.60;1.40;20.30;75.80;;;18.73;56.61;101534.78;5085324;28;8951;-53
2020/12/29 05:56:08;;;;;;;;;0.00;0.00;20.60;76.20;;;18.78;56.93;101529.91;5086473;28;8846;-53
2020/12/29 05:58:36;;;;;;;;;0.60;0.00;20.50;76.10;;;18.85;58.02;101536.41;5085349;28;8828;-51
2020/12/29 06:01:03;;;;;;;;;0.80;0.80;20.40;76.20;;;18.90;58.56;101546.69;5065685;28;8799;-51
2020/12/29 06:03:30;;;;;;;;;1.00;0.00;20.50;75.70;;;18.91;57.97;101545.72;5080961;28;8830;-49
2020/12/29 06:06:02;;;;;;;;;1.40;0.40;20.70;75.40;;;18.90;57.42;101543.19;5069453;28;8768;-50
2020/12/29 06:08:30;;;;;;;;;2.00;1.00;20.60;75.50;;;18.91;57.99;101555.59;5088272;28;8803;-50
2020/12/29 06:11:12;;;;;;;;;0.00;0.00;20.60;75.60;;;18.91;57.82;101544.88;5074837;28;9364;-49
2020/12/29 06:13:45;;;;;;;;;2.00;1.00;20.60;75.40;;;18.92;56.91;101554.59;5097032;28;8829;-57
2020/12/29 06:16:17;;;;;;;;;0.00;0.00;20.50;75.70;;;18.92;57.69;101554.59;5074949;28;9523;-57
2020/12/29 06:18:46;;;;;;;;;1.00;1.00;20.60;75.80;;;18.87;57.78;101563.03;5085941;28;8766;-57
2020/12/29 06:21:16;;;;;;;;;0.60;0.60;20.70;75.70;;;18.83;57.69;101567.81;5089813;28;8864;-58
2020/12/29 06:23:50;;;;;;;;;1.80;1.00;20.60;75.80;;;18.82;56.90;101570.63;5094607;28;8792;-58
2020/12/29 06:26:32;;;;;;;;;1.80;1.00;20.40;75.50;;;18.78;57.82;101574.59;5091243;28;8819;-57
2020/12/29 06:29:03;;;;;;;;;1.00;0.20;20.50;75.30;;;18.75;58.24;101585.50;5092824;28;9540;-58
2020/12/29 06:31:31;;;;;;;;;2.00;1.40;20.20;75.00;;;18.72;58.56;101581.25;5088775;28;8800;-57
2020/12/29 06:33:59;;;;;;;;;0.25;0.25;20.50;75.20;;;18.70;57.40;101582.38;5087126;28;9504;-56
2020/12/29 06:36:29;;;;;;;;;0.00;0.00;20.60;75.30;;;18.69;57.13;101576.19;5084524;28;8886;-56
2020/12/29 06:39:07;;;;;;;;;0.50;0.50;20.40;75.60;;;18.70;57.50;101579.72;5089804;28;8803;-55
2020/12/29 06:41:36;;;;;;;;;1.40;1.00;20.30;75.20;;;18.64;57.50;101576.59;5094168;28;8799;-53
2020/12/29 06:44:04;;;;;;;;;0.00;0.00;20.30;75.10;;;18.63;56.62;101584.75;5089306;28;8796;-53
2020/12/29 06:46:32;;;;;;;;;2.00;2.00;20.30;75.00;;;18.62;56.91;101585.72;5092881;28;8830;-53
2020/12/29 06:49:22;;;;;;;;;1.00;1.00;20.30;75.10;;;18.57;56.37;101583.47;5095461;28;9575;-54
2020/12/29 06:52:24;;;;;;;;;0.00;0.00;20.30;75.70;;;18.56;57.08;101588.94;5092303;28;8796;-54
2020/12/29 06:54:57;;;;;;;;;0.25;0.25;20.20;75.00;;;18.54;56.92;101593.59;5088329;28;8790;-54
2020/12/29 06:57:52;;;;;;;;;0.80;0.80;20.30;75.00;;;18.52;56.71;101584.84;5093495;28;9619;-54
2020/12/29 07:00:23;;;;;;;;;0.00;0.00;20.20;75.00;;;18.49;56.22;101585.13;5093696;28;8819;-56
2020/12/29 07:02:54;;;;;;;;;1.00;1.00;20.30;75.10;;;18.47;56.02;101584.38;5093397;28;9056;-53
2020/12/29 07:05:29;;;;;;;;;0.75;0.25;20.10;75.00;;;18.46;56.39;101590.72;5071904;28;9425;-54
2020/12/29 07:08:05;;;;;;;;;0.00;0.00;20.20;74.90;;;18.43;56.45;101586.50;5088146;28;8806;-55
2020/12/29 07:10:41;;;;;;;;;0.50;0.50;20.10;74.90;;;18.40;56.07;101584.94;5095357;28;8807;-54
2020/12/29 07:13:18;;;;;;;;;0.50;0.00;19.90;74.70;;;18.40;55.97;101589.44;5092351;28;8796;-54
2020/12/29 07:15:51;;;;;;;;;0.00;0.00;20.00;74.90;;;18.37;56.32;101584.38;5091849;28;8815;-55
2020/12/29 07:18:28;;;;;;;;;0.00;0.00;20.00;74.90;;;18.36;56.31;101591.50;5094852;28;8798;-53
2020/12/29 07:20:58;;;;;;;;;1.00;0.00;20.00;74.90;;;18.34;56.30;101589.94;5087496;28;8773;-54
2020/12/29 07:23:29;;;;;;;;;0.40;0.40;20.00;74.90;;;18.31;56.40;101588.38;5080157;28;8810;-56
2020/12/29 07:26:01;;;;;;;;;0.00;0.00;19.90;74.90;;;18.30;57.12;101589.38;5094288;28;8802;-53
2020/12/29 07:28:30;;;;;;;;;0.00;0.00;20.10;74.90;;;18.29;56.41;101589.50;5094734;28;8791;-54
2020/12/29 07:30:57;;;;;;;;;1.00;0.00;19.80;74.90;;;18.27;56.54;101602.16;5085165;28;8882;-50
2020/12/29 07:33:26;;;;;;;;;1.00;0.00;19.80;74.90;;;18.25;56.53;101593.44;5080013;28;8792;-53
2020/12/29 07:35:54;;;;;;;;;0.60;0.20;19.90;74.90;;;18.23;57.23;101601.59;5092415;28;8804;-51
2020/12/29 07:38:26;;;;;;;;;0.00;0.00;19.80;74.90;;;18.21;56.91;101601.69;5099787;28;8792;-53
2020/12/29 07:40:54;;;;;;;;;0.00;0.00;20.00;75.10;;;18.19;56.42;101600.13;5084752;28;8830;-55
2020/12/29 07:43:21;;;;;;;;;0.00;0.00;19.80;75.00;;;18.17;56.36;101596.78;5091387;28;8802;-54
2020/12/29 07:45:48;;;;;;;;;1.00;0.00;19.80;74.90;;;18.14;56.65;101597.88;5091134;28;8787;-54
2020/12/29 07:48:15;;;;;;;;;3.25;0.00;19.80;74.90;;;18.12;57.13;101599.00;5092523;28;8841;-55
2020/12/29 07:50:42;;;;;;;;;1.00;1.00;19.80;74.90;;;18.09;57.06;101596.56;5093158;28;8787;-55
2020/12/29 07:53:11;;;;;;;;;0.40;0.40;19.80;75.00;;;18.08;56.94;101594.88;5089103;28;8791;-55
2020/12/29 07:55:43;;;;;;;;;1.00;0.00;19.90;75.00;;;18.04;56.65;101594.28;5090366;28;8850;-53
2020/12/29 07:58:10;;;;;;;;;0.50;0.50;19.90;75.00;;;18.04;56.64;101601.44;5091231;28;8885;-55
2020/12/29 08:00:40;;;;;;;;;1.75;0.00;19.60;74.90;;;18.03;56.74;101607.78;5083909;28;8866;-54
2020/12/29 08:03:07;;;;;;;;;0.50;0.00;19.70;74.90;;;17.99;57.17;101600.03;5090067;28;8814;-53
2020/12/29 08:05:34;;;;;;;;;0.50;0.50;19.50;74.80;;;17.98;56.28;101597.47;5091868;28;8780;-54
2020/12/29 08:08:05;;;;;;;;;0.00;0.00;19.80;75.10;;;17.96;56.29;101607.44;5091260;28;8810;-51
2020/12/29 08:10:37;;;;;;;;;0.75;0.00;19.60;74.90;;;17.94;56.19;101601.41;5092452;28;8830;-54
2020/12/29 08:13:20;;;;;;;;;0.00;0.00;19.60;74.80;;;17.92;56.91;101609.53;5091065;28;8819;-55
2020/12/29 08:15:49;;;;;;;;;0.25;0.25;19.50;74.70;;;17.91;56.89;101610.53;5090040;28;8806;-55
2020/12/29 08:18:19;;;;;;;;;0.00;0.00;19.50;74.90;;;17.88;56.68;101608.06;5081532;28;8906;-54
2020/12/29 08:20:57;;;;;;;;;0.50;0.50;19.60;74.90;;;17.86;57.46;101614.53;5090714;28;8801;-54
2020/12/29 08:23:29;;;;;;;;;0.00;0.00;19.60;74.90;;;17.84;56.92;101609.34;5091571;28;8791;-55
2020/12/29 08:26:02;;;;;;;;;0.50;0.50;19.60;74.80;;;17.82;56.89;101610.44;5093020;28;8788;-54
2020/12/29 08:28:37;;;;;;;;;0.25;0.00;19.60;74.90;;;17.79;56.54;101617.72;5090120;28;8784;-52
2020/12/29 08:31:07;;;;;;;;;0.25;0.25;19.70;75.00;;;17.78;56.47;101618.69;5090211;28;8795;-54
2020/12/29 08:33:35;;;;;;;;;0.50;0.00;19.70;74.90;;;17.76;56.57;101615.28;5073526;28;8778;-54
2020/12/29 08:36:03;;;;;;;;;0.00;0.00;19.40;74.70;;;17.75;56.35;101624.25;5071153;28;8869;-55
2020/12/29 08:39:02;;;;;;;;;1.00;0.50;19.50;74.70;;;17.74;56.54;101627.06;5085751;28;9555;-55
2020/12/29 08:41:39;;;;;;;;;2.50;2.00;19.40;75.10;;;17.78;55.91;101633.84;5067169;28;8803;-52
2020/12/29 08:44:10;;;;;;;;;0.75;0.00;19.60;74.90;;;17.78;58.37;101628.50;5074283;28;8780;-53
2020/12/29 08:46:37;;;;;;;;;1.00;1.00;19.50;75.40;;;17.78;56.40;101642.75;5088866;28;8792;-53
2020/12/29 08:49:06;;;;;;;;;2.00;0.75;19.40;74.50;;;17.77;57.70;101641.03;5084123;28;8812;-55
2020/12/29 08:51:43;;;;;;;;;1.25;0.25;19.80;74.70;;;17.78;57.47;101645.41;5092576;28;8799;-55
2020/12/29 08:54:21;;;;;;;;;0.75;0.75;19.30;74.70;;;17.76;57.26;101634.00;5087761;28;8904;-52
2020/12/29 08:56:48;;;;;;;;;2.50;1.25;19.50;74.90;;;17.78;57.23;101649.88;5097649;28;8809;-57
2020/12/29 08:59:21;;;;;;;;;2.25;0.75;19.50;74.80;;;17.77;56.37;101650.88;5090203;28;8792;-56
2020/12/29 09:02:01;;;;;;;;;1.50;1.00;19.60;74.60;;;17.76;56.17;101660.72;5089111;28;8851;-53
2020/12/29 09:04:34;;;;;;;;;0.00;0.00;19.50;74.60;;;17.73;55.86;101658.31;5079366;28;8853;-53
2020/12/29 09:07:08;;;;;;;;;2.00;0.50;19.40;74.80;;;17.74;56.20;101659.16;5090101;28;8791;-54
2020/12/29 09:10:02;;;;;;;;;2.00;1.00;19.40;75.00;;;17.73;57.13;101668.13;5087755;28;8893;-55
2020/12/29 09:12:33;;;;;;;;;0.00;0.00;19.40;75.10;;;17.72;57.57;101661.09;5088109;28;8821;-54
2020/12/29 09:15:07;;;;;;;;;0.00;0.00;19.30;75.20;;;17.71;56.52;101673.59;5092362;28;8803;-57
2020/12/29 09:17:44;;;;;;;;;0.50;0.50;19.40;75.20;;;17.68;56.75;101673.88;5089382;28;8895;-56
2020/12/29 09:20:29;;;;;;;;;0.00;0.00;19.60;75.20;;;17.68;57.58;101678.34;5086032;28;8831;-55
2020/12/29 09:23:09;;;;;;;;;0.50;0.50;19.40;75.20;;;17.66;57.96;101677.63;5075034;28;8809;-56
2020/12/29 09:25:42;;;;;;;;;1.00;1.00;19.30;75.40;;;17.66;58.43;101675.81;5091322;28;8788;-51
2020/12/29 09:28:24;;;;;;;;;0.00;0.00;19.30;75.50;;;17.63;57.26;101683.22;5092144;28;8932;-55
2020/12/29 09:31:09;;;;;;;;;1.00;0.75;19.50;75.60;;;17.64;57.96;101687.59;5074004;28;8796;-52
2020/12/29 09:33:38;;;;;;;;;0.00;0.00;19.30;75.60;;;17.61;57.86;101687.84;5091601;28;8780;-56
2020/12/29 09:36:17;;;;;;;;;0.00;0.00;19.30;75.50;;;17.61;58.07;101695.88;5087975;28;8865;-54
2020/12/29 09:38:44;;;;;;;;;1.00;0.00;19.30;75.60;;;17.61;58.00;101698.53;5091121;28;8791;-54
2020/12/29 09:41:11;;;;;;;;;0.75;0.75;19.40;75.60;;;17.59;58.34;101701.31;5087229;28;8827;-55
2020/12/29 09:43:38;;;;;;;;;1.75;0.75;19.40;75.60;;;17.57;58.35;101704.09;5091801;28;9590;-56
2020/12/29 09:46:05;;;;;;;;;0.75;0.75;19.30;75.60;;;17.57;58.15;101695.25;5094802;28;9489;-54
2020/12/29 09:48:32;;;;;;;;;0.75;0.75;19.50;75.90;;;17.56;57.95;101702.44;5096658;28;8779;-55
2020/12/29 09:50:59;;;;;;;;;0.00;0.00;19.30;75.70;;;17.53;57.92;101699.16;5093868;28;8792;-54
2020/12/29 09:53:25;;;;;;;;;0.00;0.00;19.20;75.70;;;17.52;57.44;101708.97;5096170;28;8834;-54
2020/12/29 09:55:54;;;;;;;;;1.00;1.00;19.40;75.80;;;17.51;57.12;101709.97;5084513;28;8866;-54
2020/12/29 09:58:21;;;;;;;;;0.75;0.75;19.20;75.70;;;17.50;57.56;101710.94;5084882;28;8820;-54
2020/12/29 10:00:50;;;;;;;;;0.75;0.75;19.30;75.80;;;17.48;57.53;101717.38;5093489;28;9520;-53
2020/12/29 10:03:20;;;;;;;;;0.50;0.50;19.20;75.60;;;17.48;57.66;101718.22;5076914;28;8809;-54
2020/12/29 10:05:50;;;;;;;;;0.67;0.00;19.20;75.80;;;17.47;57.56;101726.34;5095774;28;9536;-53
2020/12/29 10:08:17;;;;;;;;;2.50;1.75;19.10;75.70;;;17.45;57.63;101734.47;5095348;28;8808;-55
2020/12/29 10:10:43;;;;;;;;;0.25;0.25;19.40;75.80;;;17.43;57.44;101731.09;5096039;28;8838;-56
2020/12/29 10:13:10;;;;;;;;;1.00;0.00;19.20;75.60;;;17.43;57.48;101736.44;5089472;28;8795;-54
2020/12/29 10:15:37;;;;;;;;;0.75;0.50;19.20;75.70;;;17.41;57.87;101735.72;5095921;28;8775;-55
2020/12/29 10:18:04;;;;;;;;;0.00;0.00;19.40;75.70;;;17.42;57.62;101741.91;5095568;28;8796;-56
2020/12/29 10:20:31;;;;;;;;;0.75;0.75;19.30;75.70;;;17.40;57.29;101738.50;5093541;28;8902;-55
2020/12/29 10:22:58;;;;;;;;;0.00;0.00;19.10;75.60;;;17.37;57.69;101747.59;5091139;28;8778;-54
2020/12/29 10:25:24;;;;;;;;;0.00;0.00;19.10;75.80;;;17.36;57.57;101751.25;5094783;28;8868;-56
2020/12/29 10:27:51;;;;;;;;;0.75;0.00;19.10;75.80;;;17.35;57.85;101758.44;5093058;28;8771;-54
2020/12/29 10:30:18;;;;;;;;;0.00;0.00;19.10;75.90;;;17.35;57.63;101746.88;5091805;28;8772;-54
2020/12/29 10:32:45;;;;;;;;;0.00;0.00;19.30;75.90;;;17.34;57.42;101761.22;5095976;28;8780;-54